Time;durP1;ratioP1;P1;durP2;ratioP2;P2;SDS_P1;SDS_P2;PMS_P1;PMS_P2;Temp;Humidity;BMP_temperature;BMP_pressure;BME280_temperature;BME280_humidity;BME280_pressure;Samples;Min_cycle;Max_cycle;Signal;HPM_P1;HPM_P2
2022/05/29 00:01:58;;;;;;;4.93;1.73;;;14.40;68.10;;;;;;6116983;23;21008;-83
2022/05/29 00:04:24;;;;;;;4.03;1.40;;;14.30;68.40;;;;;;6115864;23;20444;-83
2022/05/29 00:06:55;;;;;;;4.60;2.30;;;14.30;68.70;;;;;;6089566;23;20408;-83
2022/05/29 00:09:35;;;;;;;6.13;2.50;;;14.20;68.90;;;;;;6117556;23;20397;-83
2022/05/29 00:12:03;;;;;;;4.67;2.00;;;14.10;69.10;;;;;;6094692;23;20458;-82
2022/05/29 00:14:31;;;;;;;3.77;1.90;;;14.00;69.50;;;;;;6116366;23;20435;-83
2022/05/29 00:16:57;;;;;;;3.37;1.80;;;14.00;70.00;;;;;;6088798;23;20985;-82
2022/05/29 00:19:25;;;;;;;3.07;1.60;;;14.00;70.40;;;;;;6116466;23;20412;-83
2022/05/29 00:21:51;;;;;;;1.80;1.70;;;13.90;70.80;;;;;;6115431;23;20510;-81
2022/05/29 00:24:18;;;;;;;8.50;1.97;;;13.90;71.50;;;;;;6116614;23;20416;-82
2022/05/29 00:26:45;;;;;;;5.40;1.93;;;13.80;72.20;;;;;;6113956;23;20838;-83
2022/05/29 00:29:12;;;;;;;4.87;2.63;;;13.70;72.80;;;;;;6115610;23;20431;-83
2022/05/29 00:31:38;;;;;;;4.63;2.13;;;13.70;73.30;;;;;;6116045;23;20418;-83
2022/05/29 00:34:05;;;;;;;3.10;1.77;;;13.70;73.80;;;;;;6090059;23;20412;-82
2022/05/29 00:36:39;;;;;;;3.90;2.40;;;13.70;74.20;;;;;;6120012;23;20415;-84
2022/05/29 00:39:09;;;;;;;5.03;1.87;;;13.80;74.50;;;;;;6115284;23;20440;-84
2022/05/29 00:41:37;;;;;;;3.47;2.00;;;13.80;74.80;;;;;;6116486;23;20397;-82
2022/05/29 00:44:26;;;;;;;5.13;2.17;;;13.80;75.10;;;;;;6121039;23;20482;-82
2022/05/29 00:46:56;;;;;;;4.40;1.90;;;13.80;75.40;;;;;;6119442;23;20395;-84
2022/05/29 00:49:27;;;;;;;1.77;1.63;;;13.70;75.80;;;;;;6123939;23;20411;-80
2022/05/29 00:52:00;;;;;;;5.90;2.00;;;13.70;76.50;;;;;;6124992;23;20414;-83
2022/05/29 00:54:29;;;;;;;4.10;1.60;;;13.60;77.00;;;;;;6119523;23;20407;-83
2022/05/29 00:56:58;;;;;;;2.67;1.77;;;13.70;77.80;;;;;;6115407;23;20392;-83
2022/05/29 00:59:31;;;;;;;3.13;1.87;;;13.60;78.20;;;;;;6091170;23;20404;-83
2022/05/29 01:02:03;;;;;;;6.30;2.13;;;13.60;78.30;;;;;;6118928;23;20392;-83
2022/05/29 01:04:35;;;;;;;4.90;2.60;;;13.60;78.80;;;;;;6096471;23;20404;-82
2022/05/29 01:07:06;;;;;;;3.10;1.83;;;13.50;79.30;;;;;;6131318;23;20451;-80
2022/05/29 01:09:38;;;;;;;3.70;1.80;;;13.40;80.20;;;;;;6127343;23;20396;-83
2022/05/29 01:12:16;;;;;;;4.30;1.83;;;13.40;80.90;;;;;;6120821;23;20443;-84
2022/05/29 01:15:15;;;;;;;4.83;1.87;;;13.40;81.60;;;;;;6117864;23;21030;-84
2022/05/29 01:17:53;;;;;;;4.07;2.23;;;13.40;82.10;;;;;;6055446;23;20416;-83
2022/05/29 01:20:48;;;;;;;2.37;1.53;;;13.40;82.30;;;;;;6118610;23;20416;-83
2022/05/29 01:23:53;;;;;;;3.37;2.20;;;13.40;82.70;;;;;;6121804;23;21202;-83
2022/05/29 01:26:58;;;;;;;4.77;2.20;;;13.30;83.00;;;;;;6090697;23;20447;-82
2022/05/29 01:29:57;;;;;;;4.67;2.47;;;13.30;83.70;;;;;;6118257;23;20396;-83
2022/05/29 01:32:52;;;;;;;6.27;1.90;;;13.30;84.60;;;;;;6118054;23;20408;-83
2022/05/29 01:35:28;;;;;;;8.23;2.47;;;13.30;85.00;;;;;;6120340;23;20425;-82
2022/05/29 01:38:11;;;;;;;2.67;1.50;;;13.30;85.20;;;;;;6121034;23;20437;-83
2022/05/29 01:40:53;;;;;;;5.97;2.10;;;13.20;85.60;;;;;;6119178;23;21237;-82
2022/05/29 01:43:45;;;;;;;4.23;2.00;;;13.20;86.00;;;;;;6119693;23;20808;-83
2022/05/29 01:46:16;;;;;;;5.13;2.17;;;13.30;86.20;;;;;;6119934;23;20459;-84
2022/05/29 01:48:49;;;;;;;4.67;2.03;;;13.30;86.00;;;;;;6120668;23;20432;-83
2022/05/29 01:51:18;;;;;;;4.97;1.90;;;13.20;86.10;;;;;;6121280;23;20428;-83
2022/05/29 01:53:55;;;;;;;5.30;1.90;;;13.20;86.80;;;;;;6094710;23;20412;-82
2022/05/29 01:56:33;;;;;;;4.40;1.60;;;13.20;87.40;;;;;;6121492;23;20467;-82
2022/05/29 01:59:28;;;;;;;6.57;1.70;;;13.20;87.80;;;;;;6122780;23;20436;-82
2022/05/29 02:02:06;;;;;;;3.93;1.87;;;13.10;87.90;;;;;;6102415;23;20408;-81
2022/05/29 02:04:40;;;;;;;4.93;2.30;;;13.10;88.40;;;;;;6097766;23;20391;-83
2022/05/29 02:10:09;;;;;;;3.70;1.97;;;13.10;89.10;;;;;;6126681;23;20395;-82
2022/05/29 02:12:42;;;;;;;4.07;2.20;;;13.10;89.60;;;;;;6123929;23;20412;-84
2022/05/29 02:15:14;;;;;;;5.20;1.90;;;13.10;90.00;;;;;;6129356;23;20815;-81
2022/05/29 02:17:46;;;;;;;3.07;1.93;;;13.10;90.10;;;;;;6103366;23;20475;-82
2022/05/29 02:20:25;;;;;;;2.13;1.60;;;13.10;90.10;;;;;;6124237;23;20392;-82
2022/05/29 02:22:57;;;;;;;2.23;1.77;;;13.10;90.20;;;;;;6118061;23;20395;-84
2022/05/29 02:25:26;;;;;;;6.00;2.03;;;13.10;90.30;;;;;;6091109;23;20435;-84
2022/05/29 02:28:02;;;;;;;3.63;1.67;;;13.10;90.50;;;;;;6089782;23;20442;-84
2022/05/29 02:31:16;;;;;;;5.80;2.50;;;12.90;90.60;;;;;;6117245;23;20399;-85
2022/05/29 02:34:10;;;;;;;4.97;2.50;;;12.80;91.00;;;;;;6088092;23;21424;-81
2022/05/29 02:37:03;;;;;;;3.50;2.03;;;12.80;91.30;;;;;;6091660;23;20408;-84
2022/05/29 02:39:43;;;;;;;4.67;1.77;;;12.80;91.50;;;;;;6116815;23;20439;-84
2022/05/29 02:42:27;;;;;;;4.10;1.70;;;12.80;91.60;;;;;;6117724;23;20396;-83
2022/05/29 02:45:00;;;;;;;3.50;2.10;;;12.70;91.80;;;;;;6090511;23;20471;-81
2022/05/29 02:47:59;;;;;;;1.97;1.70;;;12.70;92.00;;;;;;6117383;23;20428;-84
2022/05/29 02:50:37;;;;;;;8.30;2.40;;;12.60;92.10;;;;;;6116454;23;20427;-84
2022/05/29 02:53:13;;;;;;;5.80;2.23;;;12.60;92.20;;;;;;6117328;23;20404;-83
2022/05/29 02:55:43;;;;;;;6.73;1.93;;;12.60;92.10;;;;;;6116767;23;20396;-83
2022/05/29 02:58:31;;;;;;;3.00;1.90;;;12.50;92.30;;;;;;6118410;23;20442;-85
2022/05/29 03:01:26;;;;;;;5.30;1.83;;;12.50;92.60;;;;;;6115850;23;20495;-83
2022/05/29 03:04:21;;;;;;;4.13;2.30;;;12.50;92.60;;;;;;6116757;23;21420;-82
2022/05/29 03:06:58;;;;;;;5.23;2.00;;;12.60;92.70;;;;;;6117004;23;20423;-82
2022/05/29 03:10:00;;;;;;;7.07;1.80;;;12.50;92.60;;;;;;6091834;23;21107;-81
2022/05/29 03:12:47;;;;;;;6.10;2.93;;;12.60;92.80;;;;;;6125275;23;20426;-82
2022/05/29 03:15:54;;;;;;;4.97;1.97;;;12.60;92.70;;;;;;6089847;23;20404;-80
2022/05/29 03:18:44;;;;;;;2.60;1.93;;;12.60;92.90;;;;;;6121419;23;20518;-82
2022/05/29 03:21:41;;;;;;;3.40;2.03;;;12.60;92.70;;;;;;6114988;23;20392;-81
2022/05/29 03:24:43;;;;;;;2.93;2.20;;;12.60;92.70;;;;;;6118544;23;20428;-81
2022/05/29 03:27:30;;;;;;;3.33;2.10;;;12.60;92.80;;;;;;6118585;23;20450;-81
2022/05/29 03:30:19;;;;;;;5.73;2.50;;;12.60;92.90;;;;;;6126297;23;20513;-84
2022/05/29 03:32:54;;;;;;;3.70;2.17;;;12.60;93.10;;;;;;6093430;23;20434;-85
2022/05/29 03:35:26;;;;;;;3.33;2.30;;;12.60;93.00;;;;;;6091837;23;20417;-84
2022/05/29 03:37:56;;;;;;;3.47;1.93;;;12.60;93.10;;;;;;6117582;23;20459;-84
2022/05/29 03:40:25;;;;;;;4.40;2.60;;;12.70;93.10;;;;;;6136451;23;20414;-84
2022/05/29 03:42:52;;;;;;;4.47;2.80;;;12.60;93.10;;;;;;6118102;23;20419;-83
2022/05/29 03:45:18;;;;;;;4.40;2.17;;;12.60;93.10;;;;;;6089703;23;20450;-81
2022/05/29 03:47:45;;;;;;;4.53;2.27;;;12.70;93.00;;;;;;6086964;23;20440;-84
2022/05/29 03:50:16;;;;;;;3.90;2.87;;;12.60;93.10;;;;;;6112764;23;20416;-83
2022/05/29 03:52:44;;;;;;;6.13;3.10;;;12.50;93.50;;;;;;6088113;23;20408;-84
2022/05/29 03:55:12;;;;;;;6.70;2.27;;;12.50;93.70;;;;;;6113969;23;20435;-84
2022/05/29 03:57:39;;;;;;;8.20;3.30;;;12.50;93.70;;;;;;6113612;23;20469;-82
2022/05/29 04:00:09;;;;;;;4.87;2.50;;;12.60;93.70;;;;;;6117365;23;20407;-82
2022/05/29 04:02:36;;;;;;;4.67;2.47;;;12.60;93.60;;;;;;6115705;23;20423;-81
2022/05/29 04:05:03;;;;;;;6.90;2.60;;;12.50;93.60;;;;;;6127123;23;20428;-82
2022/05/29 04:13:01;;;;;;;4.97;2.00;;;12.60;93.80;;;;;;6123834;23;20778;-83
2022/05/29 04:15:27;;;;;;;4.00;2.50;;;12.60;93.80;;;;;;6118217;23;20408;-84
2022/05/29 04:17:54;;;;;;;3.37;2.40;;;12.60;93.80;;;;;;6091483;23;20431;-82
2022/05/29 04:20:21;;;;;;;3.67;2.30;;;12.60;93.80;;;;;;6116802;23;20412;-83
2022/05/29 04:22:47;;;;;;;9.33;3.00;;;12.60;93.80;;;;;;6117203;23;20411;-83
2022/05/29 04:25:14;;;;;;;4.90;2.20;;;12.60;93.70;;;;;;6118843;23;20432;-82
2022/05/29 04:27:41;;;;;;;3.40;2.10;;;12.60;93.50;;;;;;6119984;23;20432;-83
2022/05/29 04:30:08;;;;;;;7.20;2.67;;;12.40;93.60;;;;;;6090427;23;20412;-83
2022/05/29 04:35:21;;;;;;;4.20;2.30;;;12.40;94.00;;;;;;6116944;23;20406;-84
2022/05/29 04:37:49;;;;;;;8.93;2.43;;;12.40;94.10;;;;;;6114746;23;20438;-84
2022/05/29 04:40:15;;;;;;;6.17;2.43;;;12.40;94.20;;;;;;6115712;23;21045;-82
2022/05/29 04:42:42;;;;;;;6.70;2.47;;;12.50;94.10;;;;;;6089875;23;20447;-83
2022/05/29 04:45:09;;;;;;;3.63;2.10;;;12.60;93.80;;;;;;6120047;23;20407;-84
2022/05/29 04:47:36;;;;;;;3.90;2.43;;;12.60;93.60;;;;;;6116743;23;20466;-82
2022/05/29 04:50:03;;;;;;;3.83;2.20;;;12.60;93.90;;;;;;6116749;23;20414;-84
2022/05/29 04:52:30;;;;;;;4.70;2.30;;;12.60;93.80;;;;;;6089631;23;20668;-84
2022/05/29 04:54:57;;;;;;;4.00;2.17;;;12.60;93.70;;;;;;6115749;23;20742;-84
2022/05/29 04:57:23;;;;;;;9.83;2.20;;;12.70;93.70;;;;;;6091656;23;20443;-82
2022/05/29 04:59:50;;;;;;;5.23;2.10;;;12.70;93.60;;;;;;6094858;23;20447;-82
2022/05/29 05:02:17;;;;;;;4.47;2.40;;;12.80;93.40;;;;;;6116541;23;20426;-84
2022/05/29 05:04:43;;;;;;;3.50;2.67;;;12.80;93.10;;;;;;6118628;23;20416;-83
2022/05/29 05:07:11;;;;;;;8.30;2.90;;;12.80;93.30;;;;;;6094136;23;20670;-85
2022/05/29 05:09:37;;;;;;;5.43;3.00;;;12.80;93.50;;;;;;6118066;23;20418;-85
2022/05/29 05:12:04;;;;;;;6.63;2.40;;;12.80;93.40;;;;;;6094236;23;20412;-83
2022/05/29 05:14:34;;;;;;;4.93;2.97;;;12.80;93.40;;;;;;6099334;23;20440;-85
2022/05/29 05:17:01;;;;;;;6.23;2.60;;;12.80;93.40;;;;;;6093601;23;20456;-85
2022/05/29 05:19:28;;;;;;;4.57;2.80;;;12.90;93.40;;;;;;6106077;23;20408;-81
2022/05/29 05:21:55;;;;;;;4.30;2.60;;;12.90;93.40;;;;;;6132126;23;20430;-81
2022/05/29 05:24:21;;;;;;;5.13;3.40;;;13.00;93.40;;;;;;6131870;23;20408;-81
2022/05/29 05:26:48;;;;;;;6.50;3.53;;;13.00;93.10;;;;;;6121687;23;21028;-81
2022/05/29 05:29:16;;;;;;;6.53;3.10;;;13.00;93.20;;;;;;6119597;23;20431;-84
2022/05/29 05:31:42;;;;;;;4.50;2.77;;;12.90;93.40;;;;;;6119424;23;20392;-83
2022/05/29 05:34:09;;;;;;;11.17;3.13;;;13.00;93.40;;;;;;6119126;23;20414;-82
2022/05/29 05:36:36;;;;;;;6.20;3.00;;;13.00;93.40;;;;;;6120983;23;20416;-84
2022/05/29 05:39:03;;;;;;;4.80;3.07;;;12.90;93.60;;;;;;6118360;23;20441;-84
2022/05/29 05:41:30;;;;;;;5.83;2.83;;;12.80;93.80;;;;;;6093593;23;20502;-83
2022/05/29 05:43:56;;;;;;;6.57;5.00;;;12.80;94.00;;;;;;6119832;23;20419;-84
2022/05/29 05:46:23;;;;;;;8.80;3.43;;;12.90;94.10;;;;;;6119004;23;21108;-81
2022/05/29 05:48:50;;;;;;;5.97;2.60;;;13.00;94.00;;;;;;6119221;23;20423;-81
2022/05/29 05:51:16;;;;;;;6.33;2.90;;;13.00;93.80;;;;;;6120222;23;20427;-82
2022/05/29 05:53:43;;;;;;;4.50;2.97;;;13.10;93.90;;;;;;6097285;23;20452;-83
2022/05/29 05:56:13;;;;;;;5.90;2.57;;;13.20;93.80;;;;;;6094386;23;20415;-82
2022/05/29 05:58:42;;;;;;;5.40;3.30;;;13.30;93.70;;;;;;6119613;23;20463;-83
2022/05/29 06:01:16;;;;;;;3.60;2.50;;;13.20;93.50;;;;;;6094422;23;20425;-82
2022/05/29 06:03:43;;;;;;;6.30;3.30;;;13.20;93.60;;;;;;6121098;23;20411;-84
2022/05/29 06:06:10;;;;;;;6.10;3.40;;;13.30;93.70;;;;;;6094371;23;20451;-83
2022/05/29 06:08:37;;;;;;;4.97;3.10;;;13.30;93.60;;;;;;6119165;23;20427;-81
2022/05/29 06:11:04;;;;;;;5.37;2.60;;;13.40;93.60;;;;;;6123690;23;20422;-83
2022/05/29 06:13:31;;;;;;;8.00;2.93;;;13.50;93.60;;;;;;6125901;23;20418;-84
2022/05/29 06:16:03;;;;;;;5.80;2.90;;;13.60;93.40;;;;;;6121797;23;20415;-82
2022/05/29 06:18:31;;;;;;;4.70;2.73;;;13.90;92.90;;;;;;6118833;23;20447;-82
2022/05/29 06:21:00;;;;;;;5.53;3.07;;;13.90;92.50;;;;;;6119893;23;20896;-84
2022/05/29 06:23:31;;;;;;;5.60;3.50;;;14.00;92.50;;;;;;6120503;23;20443;-83
2022/05/29 06:26:03;;;;;;;4.57;2.87;;;14.10;92.30;;;;;;6096714;23;20447;-82
2022/05/29 06:28:31;;;;;;;5.00;4.50;;;14.00;91.80;;;;;;6118220;23;20454;-84
2022/05/29 06:30:58;;;;;;;2.63;2.40;;;14.00;91.90;;;;;;6121964;23;20931;-84
2022/05/29 06:33:29;;;;;;;5.90;3.00;;;14.20;91.50;;;;;;6096286;23;20408;-83
2022/05/29 06:36:14;;;;;;;6.40;2.53;;;14.30;91.00;;;;;;6122899;23;20397;-84
2022/05/29 06:38:43;;;;;;;3.23;2.37;;;14.40;90.80;;;;;;6131232;23;20451;-82
2022/05/29 06:41:12;;;;;;;4.80;2.90;;;14.50;90.70;;;;;;6123928;23;20412;-82
2022/05/29 06:43:39;;;;;;;2.37;2.10;;;14.50;90.30;;;;;;6099024;23;20411;-84
2022/05/29 06:46:08;;;;;;;3.57;2.60;;;14.30;90.50;;;;;;6124620;23;21062;-83
2022/05/29 06:48:37;;;;;;;5.97;3.43;;;14.40;90.90;;;;;;6137174;23;20435;-82
2022/05/29 06:51:11;;;;;;;3.73;1.57;;;14.30;90.50;;;;;;6145114;23;20431;-82
2022/05/29 06:53:39;;;;;;;3.40;2.20;;;14.00;90.50;;;;;;6144139;23;20388;-81
2022/05/29 06:56:07;;;;;;;5.27;1.70;;;14.30;90.50;;;;;;6120462;23;20403;-82
2022/05/29 06:58:34;;;;;;;4.00;1.90;;;14.30;90.30;;;;;;6118095;23;20543;-82
2022/05/29 07:09:23;;;;;;;3.53;2.10;;;14.20;91.20;;;;;;6135317;23;20447;-82
2022/05/29 07:12:02;;;;;;;5.23;2.20;;;14.30;91.90;;;;;;6097925;23;20400;-85
2022/05/29 07:14:29;;;;;;;2.37;1.77;;;14.40;91.50;;;;;;6116312;23;20392;-83
2022/05/29 07:16:56;;;;;;;2.17;1.40;;;14.40;92.00;;;;;;6116231;23;20498;-83
2022/05/29 07:19:25;;;;;;;2.70;1.40;;;14.50;91.30;;;;;;6089848;23;20418;-81
2022/05/29 07:21:56;;;;;;;6.20;1.50;;;14.60;90.90;;;;;;6117356;23;20519;-82
2022/05/29 07:24:25;;;;;;;2.20;1.70;;;14.60;90.20;;;;;;6117372;23;20399;-83
2022/05/29 07:26:53;;;;;;;4.20;2.00;;;14.40;90.10;;;;;;6115951;23;20607;-82
2022/05/29 07:29:21;;;;;;;2.90;2.07;;;14.30;90.20;;;;;;6089494;23;20431;-84
2022/05/29 07:31:49;;;;;;;5.60;2.60;;;14.30;90.50;;;;;;6116440;23;21199;-83
2022/05/29 07:34:16;;;;;;;3.97;2.53;;;14.30;90.40;;;;;;6130944;23;20439;-82
2022/05/29 07:36:42;;;;;;;2.90;2.20;;;14.20;90.60;;;;;;6130049;23;20437;-83
2022/05/29 07:39:09;;;;;;;3.47;2.33;;;14.20;90.70;;;;;;6129911;23;20993;-82
2022/05/29 07:44:23;;;;;;;4.13;2.70;;;14.30;91.50;;;;;;6128070;23;20478;-83
2022/05/29 07:46:49;;;;;;;5.93;3.10;;;14.40;92.60;;;;;;6118828;23;20439;-82
2022/05/29 07:49:16;;;;;;;8.40;2.73;;;14.40;93.20;;;;;;6120909;23;20467;-84
2022/05/29 07:51:43;;;;;;;4.03;2.90;;;14.80;92.60;;;;;;6096671;23;20412;-82
2022/05/29 07:54:10;;;;;;;3.73;2.87;;;14.70;93.30;;;;;;6118847;23;20412;-82
2022/05/29 07:56:37;;;;;;;3.17;2.77;;;14.50;93.80;;;;;;6119756;23;20426;-83
2022/05/29 07:59:04;;;;;;;3.17;2.70;;;14.30;93.30;;;;;;6119084;23;20452;-83
2022/05/29 08:01:31;;;;;;;5.03;2.40;;;14.20;94.50;;;;;;6116151;23;20416;-83
2022/05/29 08:03:58;;;;;;;2.47;2.20;;;14.20;94.40;;;;;;6117179;23;20431;-82
2022/05/29 08:06:25;;;;;;;4.67;2.50;;;14.20;94.00;;;;;;6120271;23;20416;-82
2022/05/29 08:08:52;;;;;;;6.50;2.50;;;14.20;93.60;;;;;;6089521;23;20439;-83
2022/05/29 08:11:19;;;;;;;3.70;2.50;;;14.10;93.20;;;;;;6090971;23;20416;-85
2022/05/29 08:13:46;;;;;;;3.27;2.90;;;14.00;93.10;;;;;;6117673;23;20766;-82
2022/05/29 08:16:16;;;;;;;3.50;2.50;;;14.00;93.00;;;;;;6119400;23;20412;-84
2022/05/29 08:18:43;;;;;;;4.53;3.00;;;13.90;93.20;;;;;;6090692;23;20531;-83
2022/05/29 08:21:10;;;;;;;6.37;3.20;;;13.80;94.30;;;;;;6119343;23;20416;-84
2022/05/29 08:23:37;;;;;;;8.97;3.67;;;13.80;94.40;;;;;;6092789;23;20396;-83
2022/05/29 08:31:35;;;;;;;3.73;2.13;;;13.90;94.30;;;;;;6140334;23;20404;-83
2022/05/29 08:34:02;;;;;;;4.83;2.17;;;13.90;92.40;;;;;;6096490;23;20427;-84
2022/05/29 08:36:29;;;;;;;2.50;1.73;;;13.90;92.30;;;;;;6095261;23;20426;-83
2022/05/29 08:38:56;;;;;;;2.20;1.50;;;14.00;92.40;;;;;;6124555;23;20466;-82
2022/05/29 08:41:39;;;;;;;3.23;1.60;;;14.10;92.30;;;;;;6122566;23;20443;-83
2022/05/29 08:44:32;;;;;;;3.83;1.87;;;14.20;91.30;;;;;;6094248;23;21125;-84
2022/05/29 08:47:02;;;;;;;2.00;1.87;;;14.20;91.50;;;;;;6095464;23;20450;-85
2022/05/29 08:49:34;;;;;;;2.07;1.87;;;14.40;91.40;;;;;;6099002;23;20447;-85
2022/05/29 08:52:20;;;;;;;1.60;1.50;;;15.10;90.70;;;;;;6096987;23;20408;-83
2022/05/29 08:55:02;;;;;;;1.90;1.73;;;15.70;87.90;;;;;;6123754;23;20380;-83
2022/05/29 08:57:50;;;;;;;1.80;1.70;;;16.20;84.80;;;;;;6118021;23;20447;-84
2022/05/29 09:00:49;;;;;;;4.00;1.60;;;16.70;82.20;;;;;;6117388;23;20396;-83
2022/05/29 09:03:27;;;;;;;1.33;1.23;;;17.10;79.60;;;;;;6123140;23;20403;-84
2022/05/29 09:06:07;;;;;;;2.00;1.43;;;17.30;77.20;;;;;;6120775;23;20391;-82
2022/05/29 09:08:38;;;;;;;2.97;1.00;;;17.90;74.60;;;;;;6098417;23;20458;-84
2022/05/29 09:11:10;;;;;;;1.83;0.90;;;18.30;73.30;;;;;;6095149;23;20399;-83
2022/05/29 09:13:45;;;;;;;4.50;1.43;;;18.30;72.00;;;;;;6118632;23;20419;-82
2022/05/29 09:16:18;;;;;;;3.33;1.80;;;17.80;73.00;;;;;;6093507;23;21167;-81
2022/05/29 09:19:00;;;;;;;2.73;1.70;;;18.00;72.40;;;;;;6119112;23;20446;-84
2022/05/29 09:21:58;;;;;;;1.93;1.80;;;18.40;71.30;;;;;;6120746;23;20400;-84
2022/05/29 09:24:40;;;;;;;2.10;1.30;;;18.10;69.80;;;;;;6096365;23;20407;-82
2022/05/29 09:27:10;;;;;;;3.30;2.47;;;17.50;71.20;;;;;;6120565;23;20435;-82
2022/05/29 09:29:38;;;;;;;5.50;2.60;;;17.00;73.40;;;;;;6134202;23;20479;-84
2022/05/29 09:32:10;;;;;;;3.40;2.43;;;16.60;75.10;;;;;;6108915;23;20431;-82
2022/05/29 09:34:37;;;;;;;5.17;3.80;;;16.70;75.60;;;;;;6119766;23;20423;-84
2022/05/29 09:37:38;;;;;;;7.70;6.87;;;17.20;75.80;;;;;;6090446;23;20986;-86
2022/05/29 09:40:27;;;;;;;2.97;2.77;;;17.60;73.00;;;;;;6118203;23;20964;-82
2022/05/29 09:42:55;;;;;;;3.47;2.73;;;17.50;73.40;;;;;;6121197;23;20429;-83
2022/05/29 09:45:32;;;;;;;3.60;2.50;;;17.20;74.90;;;;;;6121495;23;20407;-83
2022/05/29 09:50:58;;;;;;;3.47;2.77;;;16.80;75.60;;;;;;6119080;23;20402;-83
2022/05/29 09:53:32;;;;;;;2.90;2.23;;;16.50;76.20;;;;;;6117584;23;20415;-82
2022/05/29 09:56:05;;;;;;;2.83;2.10;;;16.60;76.90;;;;;;6129821;23;20403;-80
2022/05/29 09:58:40;;;;;;;3.97;2.40;;;16.60;75.80;;;;;;6134446;23;20449;-83
2022/05/29 10:01:09;;;;;;;4.00;2.87;;;17.10;74.70;;;;;;6133957;23;20757;-84
2022/05/29 10:03:49;;;;;;;5.60;2.90;;;17.10;73.80;;;;;;6133307;23;20415;-81
2022/05/29 10:06:21;;;;;;;5.03;2.80;;;17.20;74.30;;;;;;6132518;23;20411;-82
2022/05/29 10:08:50;;;;;;;3.00;2.70;;;17.10;73.60;;;;;;6131748;23;20443;-82
2022/05/29 10:11:31;;;;;;;4.70;3.13;;;18.20;72.50;;;;;;6136634;23;20476;-81
2022/05/29 10:14:00;;;;;;;2.70;2.47;;;18.70;68.40;;;;;;6106200;23;20518;-79
2022/05/29 10:16:36;;;;;;;3.67;2.90;;;18.60;67.40;;;;;;6129055;23;20466;-84
2022/05/29 10:19:11;;;;;;;3.93;3.47;;;18.40;67.60;;;;;;6098466;23;20435;-84
2022/05/29 10:21:50;;;;;;;4.90;4.03;;;18.50;66.70;;;;;;6119835;23;20450;-82
2022/05/29 10:24:26;;;;;;;5.60;3.83;;;19.10;64.80;;;;;;6095774;23;21071;-84
2022/05/29 10:27:01;;;;;;;5.57;4.00;;;18.50;63.80;;;;;;6127566;23;20399;-80
2022/05/29 10:29:34;;;;;;;4.77;3.90;;;18.30;65.30;;;;;;6122843;23;20391;-84
2022/05/29 10:32:05;;;;;;;4.00;2.60;;;18.30;65.00;;;;;;6095231;23;20380;-83
2022/05/29 10:34:36;;;;;;;4.33;2.30;;;17.70;69.10;;;;;;6094756;23;20392;-83
2022/05/29 10:37:27;;;;;;;3.90;1.80;;;17.10;74.00;;;;;;6119092;23;20400;-85
2022/05/29 10:40:27;;;;;;;5.93;2.60;;;16.70;80.20;;;;;;6096242;23;20408;-83
2022/05/29 10:43:00;;;;;;;4.33;2.27;;;16.40;87.80;;;;;;6122916;23;20418;-83
2022/05/29 10:45:31;;;;;;;14.60;9.47;;;16.10;91.00;;;;;;6118854;23;20422;-84
2022/05/29 10:48:03;;;;;;;2.43;2.23;;;16.10;93.50;;;;;;6119377;23;21391;-83
2022/05/29 10:50:49;;;;;;;3.77;1.93;;;16.00;94.50;;;;;;6120075;23;20434;-83
2022/05/29 10:53:27;;;;;;;5.13;2.07;;;15.90;95.00;;;;;;6099794;23;20402;-84
2022/05/29 10:55:58;;;;;;;2.60;2.40;;;15.70;94.70;;;;;;6120012;23;20526;-85
2022/05/29 10:58:53;;;;;;;4.33;2.67;;;15.60;95.10;;;;;;6124746;23;20535;-84
2022/05/29 11:05:00;;;;;;;2.93;1.90;;;15.60;94.40;;;;;;6119941;23;20424;-85
2022/05/29 11:07:39;;;;;;;1.90;1.70;;;15.80;94.10;;;;;;6124030;23;20455;-85
2022/05/29 11:10:20;;;;;;;1.60;1.37;;;16.30;92.20;;;;;;6122620;23;20418;-85
2022/05/29 11:13:00;;;;;;;1.83;1.47;;;16.60;91.80;;;;;;6129774;23;20404;-84
2022/05/29 11:15:51;;;;;;;3.07;1.50;;;17.10;90.30;;;;;;6134740;23;20419;-84
2022/05/29 11:18:57;;;;;;;2.67;1.60;;;17.40;87.90;;;;;;6137455;23;20482;-83
2022/05/29 11:21:31;;;;;;;2.87;1.47;;;18.40;88.30;;;;;;6136182;23;20399;-83
2022/05/29 11:24:31;;;;;;;1.53;1.43;;;20.20;78.00;;;;;;6127745;23;20428;-82
2022/05/29 11:27:28;;;;;;;1.77;1.40;;;20.10;73.70;;;;;;6097589;23;20453;-82
2022/05/29 11:30:07;;;;;;;2.50;1.60;;;20.00;73.30;;;;;;6124859;23;20571;-84
2022/05/29 11:32:49;;;;;;;2.10;1.27;;;20.20;75.10;;;;;;6121484;23;20415;-82
2022/05/29 11:35:47;;;;;;;2.30;1.60;;;20.30;71.10;;;;;;6119378;23;20419;-84
2022/05/29 11:38:14;;;;;;;2.63;2.07;;;19.40;71.00;;;;;;6093829;23;20444;-83
2022/05/29 11:40:55;;;;;;;3.90;1.60;;;18.70;70.50;;;;;;6119743;23;20416;-84
2022/05/29 11:43:34;;;;;;;2.07;1.80;;;17.90;72.10;;;;;;6121040;23;20419;-83
2022/05/29 11:52:33;;;;;;;2.40;1.60;;;16.90;84.30;;;;;;6123523;23;20396;-82
2022/05/29 11:55:10;;;;;;;3.53;1.43;;;16.80;86.70;;;;;;6120967;23;20387;-84
2022/05/29 11:57:46;;;;;;;1.63;1.53;;;16.60;90.00;;;;;;6121200;23;20448;-83
2022/05/29 12:00:51;;;;;;;3.43;1.60;;;16.60;88.20;;;;;;6095536;23;20383;-84
2022/05/29 12:03:25;;;;;;;3.17;2.23;;;17.20;86.60;;;;;;6121473;23;20400;-84
2022/05/29 12:06:19;;;;;;;3.73;2.13;;;17.00;87.20;;;;;;6095417;23;20392;-84
2022/05/29 12:08:52;;;;;;;3.67;2.10;;;16.80;90.90;;;;;;6100092;23;20440;-83
2022/05/29 12:11:46;;;;;;;3.30;1.87;;;16.50;91.40;;;;;;6122991;23;20414;-84
2022/05/29 12:14:24;;;;;;;1.43;1.33;;;16.30;92.50;;;;;;6121314;23;20414;-84
2022/05/29 12:17:39;;;;;;;1.70;0.93;;;16.00;91.40;;;;;;6094880;23;20449;-82
2022/05/29 12:20:11;;;;;;;0.90;0.90;;;15.80;91.20;;;;;;5973873;24;20442;-82
2022/05/29 12:22:59;;;;;;;2.50;0.70;;;15.70;91.60;;;;;;5975631;24;20408;-83
2022/05/29 12:25:49;;;;;;;0.90;0.90;;;15.60;92.00;;;;;;6075852;23;20419;-83
2022/05/29 12:28:24;;;;;;;0.83;0.83;;;15.60;93.10;;;;;;6118603;23;20459;-84
2022/05/29 12:30:52;;;;;;;1.67;1.30;;;15.60;92.30;;;;;;6118978;23;20395;-83
2022/05/29 12:33:21;;;;;;;1.33;0.80;;;15.80;92.70;;;;;;6096093;23;20472;-80
2022/05/29 12:36:09;;;;;;;1.23;0.90;;;16.00;92.70;;;;;;6106422;23;20408;-83
2022/05/29 12:38:59;;;;;;;0.87;0.77;;;16.30;92.60;;;;;;6134260;23;20464;-80
2022/05/29 12:41:32;;;;;;;1.67;1.00;;;16.80;91.40;;;;;;6122185;23;20936;-81
2022/05/29 12:44:18;;;;;;;1.63;1.03;;;17.10;89.10;;;;;;6121753;23;20399;-83
2022/05/29 12:47:16;;;;;;;1.23;0.83;;;17.30;86.80;;;;;;6121736;23;20646;-83
2022/05/29 12:50:11;;;;;;;1.17;0.70;;;17.50;88.90;;;;;;6120477;23;20418;-83
2022/05/29 12:53:20;;;;;;;1.10;1.00;;;17.70;88.00;;;;;;6098360;23;20472;-84
2022/05/29 12:56:06;;;;;;;2.20;0.93;;;18.00;86.00;;;;;;6097330;23;20405;-84
2022/05/29 12:59:14;;;;;;;1.17;1.07;;;18.40;85.80;;;;;;6094739;23;20439;-83
2022/05/29 13:02:11;;;;;;;1.80;1.50;;;18.80;82.00;;;;;;6072190;23;20388;-83
2022/05/29 13:04:40;;;;;;;1.57;1.10;;;18.80;80.90;;;;;;6076415;23;20400;-82
2022/05/29 13:07:22;;;;;;;2.17;1.20;;;18.70;80.60;;;;;;6075739;23;20432;-82
2022/05/29 13:09:55;;;;;;;6.70;5.30;;;18.50;79.50;;;;;;6070929;23;20491;-82
2022/05/29 13:12:28;;;;;;;2.13;1.90;;;18.80;80.60;;;;;;6075988;23;20409;-85
2022/05/29 13:15:00;;;;;;;2.03;1.70;;;20.20;77.10;;;;;;6070934;23;20498;-81
2022/05/29 13:17:30;;;;;;;3.10;1.80;;;19.90;74.20;;;;;;6070815;23;21279;-84
2022/05/29 13:19:56;;;;;;;2.13;1.70;;;19.30;75.70;;;;;;6077895;23;20420;-83
2022/05/29 13:22:53;;;;;;;1.73;1.63;;;19.00;74.90;;;;;;6101025;23;20420;-82
2022/05/29 13:25:26;;;;;;;1.83;1.40;;;19.10;76.70;;;;;;6096705;23;20421;-83
2022/05/29 13:27:54;;;;;;;3.07;2.03;;;18.80;75.30;;;;;;6122604;23;20439;-83
2022/05/29 13:30:58;;;;;;;2.30;2.10;;;18.50;75.50;;;;;;6122315;23;20455;-83
2022/05/29 13:33:31;;;;;;;1.70;1.60;;;18.20;78.30;;;;;;6123457;23;21292;-83
2022/05/29 13:35:58;;;;;;;2.20;1.70;;;18.00;82.90;;;;;;6124773;23;20448;-83
2022/05/29 13:38:43;;;;;;;3.40;2.00;;;17.90;82.80;;;;;;6131336;23;20483;-84
2022/05/29 13:41:51;;;;;;;2.50;1.70;;;17.80;82.70;;;;;;6126966;23;20446;-82
2022/05/29 13:44:39;;;;;;;2.37;2.03;;;17.80;82.80;;;;;;6125733;23;20507;-85
2022/05/29 13:47:25;;;;;;;2.67;1.90;;;18.10;83.10;;;;;;6134477;23;20420;-83
2022/05/29 13:50:10;;;;;;;1.93;1.83;;;18.20;82.50;;;;;;6145386;23;20427;-81
2022/05/29 13:52:42;;;;;;;1.77;1.63;;;18.30;82.00;;;;;;6139595;23;20604;-84
2022/05/29 13:55:13;;;;;;;1.83;1.73;;;18.50;81.60;;;;;;6131200;23;20483;-82
2022/05/29 14:04:01;;;;;;;2.40;1.80;;;18.40;82.30;;;;;;6118235;23;20411;-83
2022/05/29 14:07:13;;;;;;;1.70;0.70;;;18.60;80.10;;;;;;6102184;23;20467;-84
2022/05/29 14:10:02;;;;;;;0.83;0.80;;;18.60;75.70;;;;;;6127017;23;20444;-83
2022/05/29 14:13:05;;;;;;;1.10;0.57;;;18.60;70.60;;;;;;6096559;23;20439;-84
2022/05/29 14:15:45;;;;;;;0.70;0.70;;;18.50;66.40;;;;;;6121930;23;20384;-82
2022/05/29 14:18:17;;;;;;;1.37;0.90;;;18.60;67.10;;;;;;6094787;23;20845;-83
2022/05/29 14:21:06;;;;;;;1.50;1.00;;;18.50;68.00;;;;;;6122516;23;20410;-82